createdAt,value
2022-12-08T00:03:26.000Z,6.8
2022-12-08T00:07:00.000Z,7.7
2022-12-08T00:09:51.000Z,7.5
2022-12-08T00:13:23.000Z,7.9
2022-12-08T00:16:56.000Z,7.1
2022-12-08T00:20:29.000Z,7
2022-12-08T00:24:01.000Z,6.9
2022-12-08T00:27:34.000Z,7.1
2022-12-08T00:31:13.000Z,7.5
2022-12-08T00:34:45.000Z,6.9
2022-12-08T00:38:18.000Z,7.1
2022-12-08T00:41:51.000Z,6.3
2022-12-08T00:45:23.000Z,7
2022-12-08T00:48:14.000Z,6.9
2022-12-08T00:51:47.000Z,6.4
2022-12-08T00:55:20.000Z,6.8
2022-12-08T00:58:52.000Z,7.2
2022-12-08T01:02:25.000Z,6.4
2022-12-08T01:05:58.000Z,6.8
2022-12-08T01:09:30.000Z,6.6
2022-12-08T01:13:03.000Z,9.2
2022-12-08T01:16:35.000Z,11.3
2022-12-08T01:20:08.000Z,11.1
2022-12-08T01:23:41.000Z,11.8
2022-12-08T01:26:32.000Z,12.6
2022-12-08T01:30:04.000Z,11.2
2022-12-08T01:33:37.000Z,12.3
2022-12-08T01:37:09.000Z,12
2022-12-08T01:40:42.000Z,12.9
2022-12-08T01:44:14.000Z,12.8
2022-12-08T01:47:47.000Z,13
2022-12-08T01:51:20.000Z,12.5
2022-12-08T01:54:53.000Z,13.9
2022-12-08T01:58:25.000Z,14.3
2022-12-08T02:01:58.000Z,12.6
2022-12-08T02:04:49.000Z,13.5
2022-12-08T02:08:21.000Z,10.2
2022-12-08T02:11:54.000Z,11.7
2022-12-08T02:15:27.000Z,13.6
2022-12-08T02:18:59.000Z,13.4
2022-12-08T02:22:56.000Z,12.9
2022-12-08T02:26:28.000Z,13.6
2022-12-08T02:30:01.000Z,13.5
2022-12-08T02:33:33.000Z,14.2
2022-12-08T02:37:06.000Z,13.7
2022-12-08T02:40:39.000Z,13.9
2022-12-08T02:43:30.000Z,13.8
2022-12-08T02:47:02.000Z,14.9
2022-12-08T02:50:35.000Z,14.5
2022-12-08T02:54:08.000Z,13.9
2022-12-08T02:57:40.000Z,14.7
2022-12-08T03:01:13.000Z,14.1
2022-12-08T03:04:46.000Z,13.7
2022-12-08T03:08:18.000Z,14.3
2022-12-08T03:11:51.000Z,13.4
2022-12-08T03:15:24.000Z,13.2
2022-12-08T03:18:57.000Z,13.3
2022-12-08T03:21:48.000Z,13.8
2022-12-08T03:25:21.000Z,13
2022-12-08T03:28:53.000Z,12.1
2022-12-08T03:32:26.000Z,11.9
2022-12-08T03:35:58.000Z,11.8
2022-12-08T03:39:31.000Z,11.1
2022-12-08T03:43:04.000Z,11
2022-12-08T03:46:36.000Z,10.2
2022-12-08T03:50:09.000Z,11.5
2022-12-08T03:53:41.000Z,11.2
2022-12-08T03:57:14.000Z,11.5
2022-12-08T04:00:05.000Z,11.9
2022-12-08T04:03:38.000Z,11.1
2022-12-08T04:07:10.000Z,11.6
2022-12-08T04:10:43.000Z,11.4
2022-12-08T04:14:16.000Z,12
2022-12-08T04:17:48.000Z,10.8
2022-12-08T04:21:21.000Z,10.3
2022-12-08T04:24:53.000Z,11
2022-12-08T04:28:26.000Z,11
2022-12-08T04:31:59.000Z,12
2022-12-08T04:35:31.000Z,11.9
2022-12-08T04:38:22.000Z,11.9
2022-12-08T04:41:55.000Z,12
2022-12-08T04:45:28.000Z,13.8
2022-12-08T04:49:01.000Z,13.4
2022-12-08T04:52:33.000Z,13
2022-12-08T04:56:06.000Z,13.7
2022-12-08T04:59:38.000Z,12.1
2022-12-08T05:03:11.000Z,11.7
2022-12-08T05:06:53.000Z,12.4
2022-12-08T05:10:26.000Z,11.9
2022-12-08T05:13:58.000Z,11.6
2022-12-08T05:16:49.000Z,11.6
2022-12-08T05:20:22.000Z,11
2022-12-08T05:23:54.000Z,11.3
2022-12-08T05:27:27.000Z,11.6
2022-12-08T05:31:00.000Z,11.4
2022-12-08T05:34:33.000Z,11.7
2022-12-08T05:38:05.000Z,11.1
2022-12-08T05:41:38.000Z,13.3
2022-12-08T05:45:10.000Z,12.8
2022-12-08T05:48:43.000Z,13.3
2022-12-08T05:52:16.000Z,12.2
2022-12-08T05:55:07.000Z,13.7
2022-12-08T05:58:40.000Z,13.2
2022-12-08T06:02:12.000Z,12
2022-12-08T06:05:45.000Z,12
2022-12-08T06:09:18.000Z,11.3
2022-12-08T06:12:50.000Z,11.1
2022-12-08T06:16:23.000Z,12.5
2022-12-08T06:19:55.000Z,12.9
2022-12-08T06:23:28.000Z,13
2022-12-08T06:27:07.000Z,13.1
2022-12-08T06:30:39.000Z,13
2022-12-08T06:33:30.000Z,13.6
2022-12-08T06:37:03.000Z,13.8
2022-12-08T06:40:41.000Z,14.8
2022-12-08T06:44:14.000Z,14.9
2022-12-08T06:47:47.000Z,14.3
2022-12-08T06:51:19.000Z,15.3
2022-12-08T06:55:03.000Z,15.4
2022-12-08T06:59:07.000Z,15.6
2022-12-08T07:02:40.000Z,15.6
2022-12-08T07:06:12.000Z,16.1
2022-12-08T07:09:45.000Z,16.9
2022-12-08T07:12:36.000Z,16.9
2022-12-08T07:16:09.000Z,15.6
2022-12-08T07:19:42.000Z,15.9
2022-12-08T07:23:15.000Z,15.2
2022-12-08T07:26:47.000Z,15.8
2022-12-08T07:30:20.000Z,15.8
2022-12-08T07:33:52.000Z,15.9
2022-12-08T07:37:25.000Z,16.9
2022-12-08T07:40:58.000Z,16.2
2022-12-08T07:44:30.000Z,15.9
2022-12-08T07:48:03.000Z,15.5
2022-12-08T07:50:54.000Z,14.7
2022-12-08T07:54:27.000Z,15.3
2022-12-08T07:57:59.000Z,16.1
2022-12-08T08:01:32.000Z,16.2
2022-12-08T08:05:05.000Z,16.4
2022-12-08T08:08:38.000Z,15.3
2022-12-08T08:12:10.000Z,16.3
2022-12-08T08:15:57.000Z,16.5
2022-12-08T08:19:30.000Z,15.6
2022-12-08T08:23:27.000Z,16.5
2022-12-08T08:27:00.000Z,16.7
2022-12-08T08:29:51.000Z,16
2022-12-08T08:33:24.000Z,15.2
2022-12-08T08:36:57.000Z,16.2
2022-12-08T08:40:29.000Z,15.9
2022-12-08T08:44:02.000Z,15.2
2022-12-08T08:47:35.000Z,15.6
2022-12-08T08:51:08.000Z,15.7
2022-12-08T08:54:40.000Z,15.7
2022-12-08T08:58:13.000Z,15.1
2022-12-08T09:01:45.000Z,14.6
2022-12-08T09:05:18.000Z,14.7
2022-12-08T09:08:09.000Z,15.5
2022-12-08T09:11:42.000Z,15.6
2022-12-08T09:15:15.000Z,13.8
2022-12-08T09:18:47.000Z,14.2
2022-12-08T09:22:20.000Z,14.4
2022-12-08T09:25:52.000Z,15.9
2022-12-08T09:29:25.000Z,16.2
2022-12-08T09:33:01.000Z,14.3
2022-12-08T09:36:34.000Z,17
2022-12-08T09:40:06.000Z,18.4
2022-12-08T09:43:46.000Z,15.8
2022-12-08T09:46:38.000Z,16.9
2022-12-08T09:50:10.000Z,15.8
2022-12-08T09:53:43.000Z,15.1
2022-12-08T09:57:16.000Z,14.8
2022-12-08T10:00:48.000Z,15.9
2022-12-08T10:04:21.000Z,14.6
2022-12-08T10:07:54.000Z,14.4
2022-12-08T10:11:27.000Z,13.6
2022-12-08T10:14:59.000Z,15.3
2022-12-08T10:18:32.000Z,12.9
2022-12-08T10:22:05.000Z,12.5
2022-12-08T10:24:56.000Z,13.5
2022-12-08T10:28:29.000Z,12.5
2022-12-08T10:32:09.000Z,12.1
2022-12-08T10:35:42.000Z,12.5
2022-12-08T10:39:14.000Z,12.1
2022-12-08T10:42:47.000Z,13.3
2022-12-08T10:46:20.000Z,12.4
2022-12-08T10:49:54.000Z,12.1
2022-12-08T10:53:28.000Z,11.4
2022-12-08T10:57:00.000Z,11.4
2022-12-08T11:00:33.000Z,11.1
2022-12-08T11:03:24.000Z,10.9
2022-12-08T11:06:56.000Z,11.6
2022-12-08T11:10:29.000Z,10.9
2022-12-08T11:14:02.000Z,10.7
2022-12-08T11:17:34.000Z,10.1
2022-12-08T11:21:07.000Z,10.6
2022-12-08T11:24:40.000Z,9.3
2022-12-08T11:28:12.000Z,9.2
2022-12-08T11:31:45.000Z,10.3
2022-12-08T11:35:18.000Z,10.4
2022-12-08T11:38:51.000Z,10.4
2022-12-08T11:41:42.000Z,9.4
2022-12-08T11:45:14.000Z,8.7
2022-12-08T11:48:47.000Z,9.4
2022-12-08T11:52:20.000Z,10.3
2022-12-08T11:55:53.000Z,9.6
2022-12-08T11:59:25.000Z,10.4
2022-12-08T12:02:58.000Z,10.3
2022-12-08T12:06:30.000Z,10.1
2022-12-08T12:10:20.000Z,9.8
2022-12-08T12:13:53.000Z,10.3
2022-12-08T12:17:25.000Z,9.7
2022-12-08T12:20:16.000Z,9.7
2022-12-08T12:23:49.000Z,10.2
2022-12-08T12:27:22.000Z,8.8
2022-12-08T12:30:54.000Z,9.1
2022-12-08T12:34:27.000Z,9.6
2022-12-08T12:38:00.000Z,9.7
2022-12-08T12:41:32.000Z,9.8
2022-12-08T12:45:05.000Z,9.9
2022-12-08T12:48:37.000Z,9.1
2022-12-08T12:52:10.000Z,9.9
2022-12-08T12:55:43.000Z,8.5
2022-12-08T12:58:34.000Z,8.7
2022-12-08T13:02:07.000Z,7.9
2022-12-08T13:05:39.000Z,7.5
2022-12-08T13:09:12.000Z,7.3
2022-12-08T13:12:45.000Z,7.1
2022-12-08T13:16:17.000Z,7.3
2022-12-08T13:19:50.000Z,6.5
2022-12-08T13:23:22.000Z,8.9
2022-12-08T13:26:55.000Z,9.9
2022-12-08T13:30:28.000Z,7.6
2022-12-08T13:34:00.000Z,6.9
2022-12-08T13:36:52.000Z,8.1
2022-12-08T13:40:24.000Z,7.4
2022-12-08T13:43:57.000Z,7
2022-12-08T13:49:15.000Z,6.6
2022-12-08T13:56:55.000Z,6.9
2022-12-08T14:00:36.000Z,6.7
2022-12-08T14:04:09.000Z,7.1
2022-12-08T14:08:41.000Z,7
2022-12-08T14:12:27.000Z,7.2
2022-12-08T14:16:00.000Z,7.5
2022-12-08T14:19:32.000Z,7.6
2022-12-08T14:22:24.000Z,8
2022-12-08T14:25:56.000Z,7.4
2022-12-08T14:29:29.000Z,7.6
2022-12-08T14:33:02.000Z,8
2022-12-08T14:36:34.000Z,7.8
2022-12-08T14:40:07.000Z,9.8
2022-12-08T14:43:46.000Z,7.2
2022-12-08T14:47:18.000Z,7.5
2022-12-08T14:50:51.000Z,7.7
2022-12-08T14:54:24.000Z,9
2022-12-08T14:57:56.000Z,7.2
2022-12-08T15:00:47.000Z,7.4
2022-12-08T15:04:20.000Z,7.8
2022-12-08T15:07:53.000Z,6.7
2022-12-08T15:11:25.000Z,7.5
2022-12-08T15:14:58.000Z,7.4
2022-12-08T15:18:31.000Z,9.4
2022-12-08T15:22:04.000Z,11.4
2022-12-08T15:25:36.000Z,6.7
2022-12-08T15:29:09.000Z,9.8
2022-12-08T15:32:41.000Z,23.8
2022-12-08T15:36:14.000Z,28.6
2022-12-08T15:39:05.000Z,9.7
2022-12-08T15:42:38.000Z,13.9
2022-12-08T15:46:10.000Z,16.7
2022-12-08T15:49:43.000Z,15.1
2022-12-08T15:53:15.000Z,3.6
2022-12-08T15:56:48.000Z,6.5
2022-12-08T16:00:54.000Z,4.6
2022-12-08T16:05:02.000Z,5.9
2022-12-08T16:09:20.000Z,4.8
2022-12-08T16:13:39.000Z,3.6
2022-12-08T16:17:58.000Z,5
2022-12-08T16:20:49.000Z,4.1
2022-12-08T16:25:41.000Z,3.1
2022-12-08T16:30:04.000Z,2.8
2022-12-08T16:33:37.000Z,3.8
2022-12-08T16:37:09.000Z,2.6
2022-12-08T16:40:42.000Z,2.7
2022-12-08T16:44:14.000Z,3
2022-12-08T16:47:47.000Z,4.1
2022-12-08T16:51:20.000Z,3.2
2022-12-08T16:54:53.000Z,3.6
2022-12-08T16:58:31.000Z,18.5
2022-12-08T17:01:22.000Z,16.4
2022-12-08T17:04:55.000Z,7.8
2022-12-08T17:08:28.000Z,3.4
2022-12-08T17:12:00.000Z,2.4
2022-12-08T17:15:33.000Z,2.6
2022-12-08T17:19:06.000Z,2.8
2022-12-08T17:22:38.000Z,3.1
2022-12-08T17:26:17.000Z,3.1
2022-12-08T17:29:50.000Z,3.5
2022-12-08T17:33:28.000Z,3.5
2022-12-08T17:37:01.000Z,3.7
2022-12-08T17:39:52.000Z,3.7
2022-12-08T17:43:25.000Z,4.8
2022-12-08T17:46:58.000Z,7.5
2022-12-08T17:50:30.000Z,7.7
2022-12-08T17:54:03.000Z,8.6
2022-12-08T17:57:36.000Z,10.3
2022-12-08T18:01:08.000Z,13.2
2022-12-08T18:04:41.000Z,6
2022-12-08T18:08:14.000Z,6.2
2022-12-08T18:11:46.000Z,4.9
2022-12-08T18:15:19.000Z,4.8
2022-12-08T18:18:10.000Z,4.9
2022-12-08T18:21:43.000Z,6
2022-12-08T18:25:16.000Z,8.4
2022-12-08T18:28:48.000Z,6.8
2022-12-08T18:32:21.000Z,9.7
2022-12-08T18:35:53.000Z,10.7
2022-12-08T18:39:26.000Z,10.8
2022-12-08T18:42:59.000Z,9.3
2022-12-08T18:46:31.000Z,7.8
2022-12-08T18:50:04.000Z,7.5
2022-12-08T18:53:36.000Z,6.7
2022-12-08T18:56:27.000Z,6.7
2022-12-08T19:00:00.000Z,6
2022-12-08T19:03:34.000Z,5.9
2022-12-08T19:07:18.000Z,5.7
2022-12-08T19:10:50.000Z,5.1
2022-12-08T19:14:23.000Z,4.5
2022-12-08T19:17:56.000Z,4.7
2022-12-08T19:21:28.000Z,4.8
2022-12-08T19:25:08.000Z,4.4
2022-12-08T19:28:40.000Z,4.1
2022-12-08T19:32:13.000Z,3.5
2022-12-08T19:35:04.000Z,4.2
2022-12-08T19:38:37.000Z,3.6
2022-12-08T19:42:09.000Z,3.8
2022-12-08T19:45:42.000Z,4.5
2022-12-08T19:49:15.000Z,4.8
2022-12-08T19:52:47.000Z,11.9
2022-12-08T19:56:20.000Z,15.6
2022-12-08T19:59:52.000Z,12.3
2022-12-08T20:03:25.000Z,11.2
2022-12-08T20:06:58.000Z,7.4
2022-12-08T20:10:30.000Z,7.4
2022-12-08T20:13:22.000Z,8.1
2022-12-08T20:16:54.000Z,9.1
2022-12-08T20:20:27.000Z,9.3
2022-12-08T20:23:59.000Z,7.8
2022-12-08T20:27:32.000Z,8.7
2022-12-08T20:31:05.000Z,7.7
2022-12-08T20:34:37.000Z,7.6
2022-12-08T20:38:10.000Z,9
2022-12-08T20:41:43.000Z,9.1
2022-12-08T20:45:15.000Z,7.4
2022-12-08T20:48:48.000Z,8.5
2022-12-08T20:51:39.000Z,8.9
2022-12-08T20:55:12.000Z,8
2022-12-08T20:58:47.000Z,8.4
2022-12-08T21:02:20.000Z,9.7
2022-12-08T21:05:53.000Z,8.1
2022-12-08T21:09:26.000Z,7.9
2022-12-08T21:12:59.000Z,7.2
2022-12-08T21:16:32.000Z,8.1
2022-12-08T21:20:05.000Z,7.4
2022-12-08T21:23:38.000Z,8.4
2022-12-08T21:27:11.000Z,7.8
2022-12-08T21:30:02.000Z,7.9
2022-12-08T21:33:35.000Z,9.1
2022-12-08T21:37:08.000Z,10.8
2022-12-08T21:40:41.000Z,9.6
2022-12-08T21:44:14.000Z,13
2022-12-08T21:47:47.000Z,10.6
2022-12-08T21:51:20.000Z,13.4
2022-12-08T21:54:53.000Z,11
2022-12-08T21:58:26.000Z,12.9
2022-12-08T22:01:59.000Z,13.9
2022-12-08T22:05:32.000Z,10.9
2022-12-08T22:08:24.000Z,11.6
2022-12-08T22:11:57.000Z,12.7
2022-12-08T22:15:29.000Z,12.5
2022-12-08T22:19:02.000Z,10.6
2022-12-08T22:22:42.000Z,9.9
2022-12-08T22:26:15.000Z,8.8
2022-12-08T22:29:49.000Z,8.8
2022-12-08T22:33:22.000Z,9.3
2022-12-08T22:36:55.000Z,8.3
2022-12-08T22:40:28.000Z,10.8
2022-12-08T22:44:01.000Z,10.4
2022-12-08T22:46:52.000Z,12.2
2022-12-08T22:50:25.000Z,13.1
2022-12-08T22:53:58.000Z,12.2
2022-12-08T22:57:32.000Z,12.2
2022-12-08T23:01:04.000Z,12.2
2022-12-08T23:04:37.000Z,11.4
2022-12-08T23:08:10.000Z,10.9
2022-12-08T23:11:43.000Z,10.4
2022-12-08T23:15:16.000Z,10.2
2022-12-08T23:18:49.000Z,10.2
2022-12-08T23:22:22.000Z,10.3
2022-12-08T23:25:13.000Z,11
2022-12-08T23:28:46.000Z,10.3
2022-12-08T23:32:18.000Z,10.1
2022-12-08T23:35:51.000Z,10.2
2022-12-08T23:39:24.000Z,10.5
2022-12-08T23:42:57.000Z,9.5
2022-12-08T23:46:30.000Z,9.6
2022-12-08T23:50:03.000Z,11
2022-12-08T23:53:36.000Z,12
2022-12-08T23:57:10.000Z,14.8
